Flight Track Log - Related Links

Times and Time Zones

All times are in EST time to prevent confusion due to time zone crossing. See the AWE679 flight status page for this flight to view local times or setup timezone preferences in your user account.


Time Position Orientation Groundspeed Altitude Reporting Facility
EST Latitude Longitude Course Direction KTS MPH feet Rate Location/Type
Sat 05:21:00 PM 33.1161 -112.2568 216° Southwest  Level FlightAware Approximate
Sat 05:22:00 PM 33.0525 -112.3379 246° West  Level FlightAware Approximate
Sat 05:22:36 PM 33.2500 -112.2501 210° Southwest 264 304 12,700  Level FlightAware ADS-B (MLE / VRMM)
Sat 05:23:00 PM 33.0138 -112.4428 250° West  Level FlightAware Approximate
Sat 05:23:02 PM 33.2203 -112.2698 218° Southwest 290 334 13,200  Level FlightAware ADS-B (MLE / VRMM)
Sat 05:23:26 PM 33.1982 -112.2996 233° Southwest 300 345 13,900 1,385 Climbing FlightAware ADS-B (MLE / VRMM)
Sat 05:24:07 PM 33.1615 -112.3565 234° Southwest 333 383 14,700 2,074 Climbing FlightAware ADS-B (MLE / VRMM)
Sat 05:25:42 PM 33.0698 -112.4984 233° Southwest 343 395 18,600 2,208 Climbing FlightAware ADS-B (MLE / VRMM)
Sat 05:26:12 PM 33.0420 -112.5466 246° West 353 406 19,300 1,448 Climbing FlightAware ADS-B (MLE / VRMM)
Sat 05:27:09 PM 33.0100 -112.6447 246° West 368 423 20,700 864 Climbing Los Angeles Center
Sat 05:28:10 PM 32.9786 -112.7581 252° West 365 420 21,000 229 Climbing Los Angeles Center
Sat 05:29:20 PM 32.9975 -112.9078 279° West 381 438 21,200 824 Climbing Albuquerque Center
Sat 05:30:21 PM 32.9969 -113.0339 270° West 384 442 22,800 1,463 Climbing Albuquerque Center
Sat 05:31:23 PM 32.9811 -113.1592 261° West 392 451 24,200 1,463 Climbing Albuquerque Center
Sat 05:32:24 PM 32.9525 -113.2794 254° West 384 442 25,800 1,610 Climbing Albuquerque Center
Sat 05:33:26 PM 32.9217 -113.4011 253° West 384 442 27,500 1,073 Climbing Albuquerque Center
Sat 05:34:27 PM 32.8917 -113.5183 253° West 378 435 28,000 261 Climbing Albuquerque Center
Sat 05:35:21 PM 32.8603 -113.6392 253° West 373 429 28,000  Level Los Angeles Center
Sat 05:36:22 PM 32.8447 -113.7631 262° West 386 444 28,000  Level Los Angeles Center
Sat 05:37:24 PM 32.8422 -113.8900 269° West 386 444 28,000  Level Los Angeles Center
Sat 05:38:25 PM 32.8397 -114.0183 269° West 389 448 28,000  Level Los Angeles Center
Sat 05:39:27 PM 32.8364 -114.1450 268° West 386 444 28,000  Level Los Angeles Center
Sat 05:40:28 PM 32.8333 -114.2722 268° West 386 444 28,000 -49 Level Los Angeles Center
Sat 05:41:30 PM 32.8283 -114.4247 268° West 386 444 27,900 -48 Descending Los Angeles Center
Sat 05:42:32 PM 32.8253 -114.5506 268° West 386 444 27,900 49 Level Los Angeles Center
Sat 05:43:33 PM 32.8203 -114.6786 267° West 388 447 28,000 49 Climbing Los Angeles Center
Sat 05:44:35 PM 32.8156 -114.8044 267° West 382 440 28,000 -49 Level Los Angeles Center
Sat 05:45:36 PM 32.8111 -114.9294 268° West 382 440 27,900 -439 Descending Los Angeles Center
Sat 05:46:38 PM 32.8097 -115.0528 269° West 376 433 27,100 -927 Descending Los Angeles Center
Sat 05:47:39 PM 32.8053 -115.1769 268° West 376 433 26,000 -1,024 Descending Los Angeles Center
Sat 05:48:41 PM 32.8025 -115.2989 268° West 371 427 25,000 -1,512 Descending Los Angeles Center
Sat 05:49:42 PM 32.7983 -115.4406 268° West 360 414 22,900 -1,951 Descending Los Angeles Center
Sat 05:50:44 PM 32.7939 -115.5547 267° West 350 403 21,000 -1,707 Descending Los Angeles Center
Sat 05:51:45 PM 32.7897 -115.6703 268° West 351 404 19,400 -1,659 Descending Los Angeles Center
Sat 05:52:47 PM 32.7861 -115.7875 268° West 357 411 17,600 -1,561 Descending Los Angeles Center
Sat 05:53:48 PM 32.7814 -115.9064 267° West 361 415 16,200 -1,610 Descending Los Angeles Center
Sat 05:54:50 PM 32.7775 -116.0167 268° West 339 390 14,300 -1,707 Descending Los Angeles Center
Sat 05:55:51 PM 32.7731 -116.1253 267° West 330 380 12,700 -1,366 Descending Los Angeles Center
Sat 05:56:53 PM 32.7686 -116.2311 267° West 322 371 11,500 -1,073 Descending Los Angeles Center
Sat 05:57:54 PM 32.7611 -116.3350 265° West 315 362 10,500 -780 Descending Los Angeles Center
Sat 05:58:56 PM 32.7450 -116.4322 259° West 300 345 9,900 -244 Descending Los Angeles Center
Sat 05:59:57 PM 32.7306 -116.5317 260° West 300 345 10,000 -585 Climbing Los Angeles Center
Sat 06:00:59 PM 32.7147 -116.6356 260° West 269 310 8,700 -1,366 Descending Los Angeles Center
Sat 06:02:00 PM 32.7042 -116.7161 261° West 253 291 7,200 -1,317 Descending Los Angeles Center
Sat 06:03:02 PM 32.6917 -116.7972 260° West 249 287 6,000 -634 Descending Los Angeles Center
Sat 06:04:03 PM 32.6811 -116.8686 260° West 226 260 5,900 -878 Descending Los Angeles Center
Sat 06:05:05 PM 32.6725 -116.9328 261° West 206 237 4,200 -1,317 Descending Los Angeles Center
Sat 06:06:06 PM 32.6864 -116.9925 285° West 194 223 3,200 -927 Descending Los Angeles Center
Sat 06:07:08 PM 32.6992 -117.0506 285° West 184 212 2,300 -780 Descending Los Angeles Center
Sat 06:08:09 PM 32.7131 -117.1047 287° West 174 200 1,600 -878 Descending Los Angeles Center
Sat 06:09:11 PM 32.7275 -117.1608 287° West 154 177 500 -634 Descending Los Angeles Center
Sat 06:10:12 PM 32.7397 -117.2075 287° West 153 176 300 -197 Descending Los Angeles Center

Login

Don't have an account? Register now (free) for customized features, flight alerts, and more!